Terminal Aerodrome Forecast
Issued by NWS

Home | Current Version | Previous Version | Text Only | Print | Product List | Glossary On
Versions: 1 2 3 4 5 6 7 8 9 10 11 12 13 14 15 16 17 18 19 20
307
FTUS42 KTBW 061138
TAFPGD
TAF
KPGD 061138Z 0612/0712 19012KT P6SM VCSH SCT011 BKN050
      TEMPO 0612/0614 BKN011
     FM061400 19014G24KT P6SM VCSH SCT015 OVC050
     FM061700 21017G26KT P6SM VCTS SCT025CB BKN040
      TEMPO 0617/0620 VRB20G30KT 2SM +TSRA BKN020CB
     FM062100 24014KT P6SM -SHRA BKN030 OVC050
     FM070200 24005KT P6SM SCT015 OVC025=

USA.gov is the U.S. government's official web portal to all federal, state and local government web resources and services.